FIX YDPO-YSCB
Flight info
| Callsign | FIX |
|---|---|
| Flight time | 1h 23m |
| Altitude | 19000 |
| Route | IRSOM W389 NUNPA/N0309F280 J163 CB |
| Aircraft | B350/L-SDFG/S |
Departure
| Time | 2026-04-25 05:25 |
|---|---|
| Airport | Devonport Airport (YDPO) |
Arrival
| Time | 2026-04-25 06:48 |
|---|---|
| Airport | Canberra Airport (YSCB) |
| Time | Latitude | Longitude | Altitude | Speed | Heading |
|---|---|---|---|---|---|
| 2026-04-25 05:11 | -41.17185 | 146.42589 | 27 ft | 0 kts | 37° |
| 2026-04-25 05:22 | -41.17171 | 146.42605 | 27 ft | 7 kts | 42° |
| 2026-04-25 05:23 | -41.17125 | 146.42667 | 27 ft | 12 kts | 53° |
| 2026-04-25 05:23 | -41.17052 | 146.42694 | 26 ft | 14 kts | 346° |
| 2026-04-25 05:23 | -41.16938 | 146.42657 | 26 ft | 19 kts | 345° |
| 2026-04-25 05:23 | -41.16855 | 146.42604 | 26 ft | 14 kts | 281° |
| 2026-04-25 05:24 | -41.16874 | 146.42439 | 26 ft | 23 kts | 259° |
| 2026-04-25 05:24 | -41.16909 | 146.42226 | 25 ft | 25 kts | 252° |
| 2026-04-25 05:24 | -41.16950 | 146.42031 | 25 ft | 19 kts | 248° |
| 2026-04-25 05:24 | -41.16969 | 146.41939 | 23 ft | 5 kts | 34° |
| 2026-04-25 05:25 | -41.16948 | 146.42031 | 25 ft | 28 kts | 77° |
| 2026-04-25 05:25 | -41.16823 | 146.42717 | 26 ft | 117 kts | 76° |
| 2026-04-25 05:25 | -41.16591 | 146.43961 | 230 ft | 152 kts | 72° |
| 2026-04-25 05:25 | -41.16309 | 146.45366 | 804 ft | 162 kts | 70° |
| 2026-04-25 05:26 | -41.15842 | 146.46700 | 1473 ft | 162 kts | 38° |
| 2026-04-25 05:26 | -41.14926 | 146.47593 | 2114 ft | 165 kts | 31° |
| 2026-04-25 05:26 | -41.13989 | 146.48521 | 2750 ft | 170 kts | 32° |
| 2026-04-25 05:26 | -41.13063 | 146.49522 | 3379 ft | 173 kts | 35° |
| 2026-04-25 05:27 | -41.12175 | 146.50581 | 4018 ft | 174 kts | 37° |
| 2026-04-25 05:27 | -41.11288 | 146.51688 | 4663 ft | 176 kts | 38° |
| 2026-04-25 05:27 | -41.10432 | 146.52865 | 5303 ft | 179 kts | 43° |
| 2026-04-25 05:27 | -41.09626 | 146.54141 | 5925 ft | 181 kts | 43° |
| 2026-04-25 05:28 | -41.08795 | 146.55405 | 6557 ft | 182 kts | 41° |
| 2026-04-25 05:28 | -41.07947 | 146.56662 | 7165 ft | 183 kts | 41° |
| 2026-04-25 05:28 | -41.07101 | 146.57935 | 7772 ft | 185 kts | 41° |
| 2026-04-25 05:28 | -41.06252 | 146.59225 | 8273 ft | 187 kts | 40° |
| 2026-04-25 05:29 | -41.05387 | 146.60521 | 8685 ft | 189 kts | 40° |
| 2026-04-25 05:29 | -41.04514 | 146.61830 | 9085 ft | 189 kts | 40° |
| 2026-04-25 05:29 | -41.03648 | 146.63141 | 9469 ft | 189 kts | 40° |
| 2026-04-25 05:29 | -41.02787 | 146.64434 | 9839 ft | 190 kts | 40° |
| 2026-04-25 05:30 | -41.01904 | 146.65760 | 10193 ft | 192 kts | 40° |
| 2026-04-25 05:30 | -41.01017 | 146.67094 | 10522 ft | 194 kts | 40° |
| 2026-04-25 05:30 | -41.00124 | 146.68435 | 10849 ft | 194 kts | 39° |
| 2026-04-25 05:30 | -40.99222 | 146.69787 | 11261 ft | 196 kts | 39° |
| 2026-04-25 05:31 | -40.98318 | 146.71147 | 11783 ft | 196 kts | 39° |
| 2026-04-25 05:31 | -40.97414 | 146.72505 | 12292 ft | 197 kts | 39° |
| 2026-04-25 05:31 | -40.96506 | 146.73867 | 12812 ft | 197 kts | 39° |
| 2026-04-25 05:31 | -40.95594 | 146.75231 | 13323 ft | 198 kts | 39° |
| 2026-04-25 05:32 | -40.94678 | 146.76603 | 13834 ft | 200 kts | 39° |
| 2026-04-25 05:32 | -40.93754 | 146.77989 | 14316 ft | 201 kts | 39° |
| 2026-04-25 05:32 | -40.92825 | 146.79377 | 14758 ft | 203 kts | 39° |
| 2026-04-25 05:32 | -40.91888 | 146.80780 | 15192 ft | 205 kts | 39° |
| 2026-04-25 05:33 | -40.90941 | 146.82196 | 15625 ft | 206 kts | 39° |
| 2026-04-25 05:33 | -40.89985 | 146.83627 | 16055 ft | 208 kts | 39° |
| 2026-04-25 05:33 | -40.89014 | 146.85074 | 16376 ft | 217 kts | 39° |
| 2026-04-25 05:33 | -40.87986 | 146.86601 | 16491 ft | 231 kts | 40° |
| 2026-04-25 05:34 | -40.86911 | 146.88223 | 16738 ft | 237 kts | 41° |
| 2026-04-25 05:34 | -40.85805 | 146.89871 | 16991 ft | 241 kts | 40° |
| 2026-04-25 05:34 | -40.84682 | 146.91540 | 17249 ft | 245 kts | 41° |
| 2026-04-25 05:34 | -40.83546 | 146.93235 | 17506 ft | 247 kts | 41° |
| 2026-04-25 05:35 | -40.82401 | 146.94941 | 17763 ft | 249 kts | 41° |
| 2026-04-25 05:35 | -40.81244 | 146.96660 | 18026 ft | 251 kts | 41° |
| 2026-04-25 05:35 | -40.80083 | 146.98388 | 18284 ft | 252 kts | 41° |
| 2026-04-25 05:35 | -40.78915 | 147.00124 | 18548 ft | 253 kts | 41° |
| 2026-04-25 05:36 | -40.77744 | 147.01865 | 18788 ft | 254 kts | 41° |
| 2026-04-25 05:36 | -40.76567 | 147.03612 | 19006 ft | 255 kts | 41° |
| 2026-04-25 05:36 | -40.75377 | 147.05375 | 19136 ft | 260 kts | 41° |
| 2026-04-25 05:36 | -40.74158 | 147.07183 | 19203 ft | 267 kts | 42° |
| 2026-04-25 05:37 | -40.72910 | 147.09036 | 19231 ft | 273 kts | 42° |
| 2026-04-25 05:37 | -40.71634 | 147.10927 | 19250 ft | 278 kts | 42° |
| 2026-04-25 05:37 | -40.70337 | 147.12846 | 19258 ft | 283 kts | 42° |
| 2026-04-25 05:37 | -40.69017 | 147.14801 | 19259 ft | 288 kts | 42° |
| 2026-04-25 05:38 | -40.67667 | 147.16794 | 19267 ft | 295 kts | 43° |
| 2026-04-25 05:38 | -40.66290 | 147.18832 | 19267 ft | 300 kts | 43° |
| 2026-04-25 05:38 | -40.64894 | 147.20893 | 19270 ft | 303 kts | 43° |
| 2026-04-25 05:38 | -40.63484 | 147.22973 | 19270 ft | 306 kts | 43° |
| 2026-04-25 05:39 | -40.62063 | 147.25068 | 19271 ft | 307 kts | 43° |
| 2026-04-25 05:39 | -40.60635 | 147.27172 | 19269 ft | 309 kts | 43° |
| 2026-04-25 05:39 | -40.59221 | 147.29255 | 19270 ft | 310 kts | 43° |
| 2026-04-25 05:39 | -40.57780 | 147.31374 | 19272 ft | 310 kts | 43° |
| 2026-04-25 05:40 | -40.56340 | 147.33491 | 19272 ft | 311 kts | 43° |
| 2026-04-25 05:40 | -40.54894 | 147.35617 | 19270 ft | 311 kts | 43° |
| 2026-04-25 05:40 | -40.53448 | 147.37740 | 19271 ft | 312 kts | 43° |
| 2026-04-25 05:40 | -40.51998 | 147.39869 | 19273 ft | 312 kts | 43° |
| 2026-04-25 05:41 | -40.50541 | 147.42003 | 19269 ft | 312 kts | 43° |
| 2026-04-25 05:41 | -40.49095 | 147.44123 | 19270 ft | 312 kts | 43° |
| 2026-04-25 05:41 | -40.47645 | 147.46246 | 19274 ft | 312 kts | 43° |
| 2026-04-25 05:41 | -40.46195 | 147.48367 | 19275 ft | 312 kts | 43° |
| 2026-04-25 05:42 | -40.44744 | 147.50489 | 19274 ft | 312 kts | 43° |
| 2026-04-25 05:42 | -40.43315 | 147.52579 | 19276 ft | 312 kts | 43° |
| 2026-04-25 05:42 | -40.41865 | 147.54695 | 19270 ft | 312 kts | 43° |
| 2026-04-25 05:42 | -40.40415 | 147.56810 | 19273 ft | 312 kts | 43° |
| 2026-04-25 05:43 | -40.38965 | 147.58926 | 19276 ft | 312 kts | 43° |
| 2026-04-25 05:43 | -40.37515 | 147.61038 | 19275 ft | 312 kts | 44° |
| 2026-04-25 05:43 | -40.36063 | 147.63151 | 19275 ft | 312 kts | 44° |
| 2026-04-25 05:43 | -40.34611 | 147.65265 | 19276 ft | 311 kts | 44° |
| 2026-04-25 05:44 | -40.33160 | 147.67374 | 19278 ft | 311 kts | 44° |
| 2026-04-25 05:44 | -40.31706 | 147.69489 | 19278 ft | 311 kts | 44° |
| 2026-04-25 05:44 | -40.30255 | 147.71595 | 19277 ft | 311 kts | 44° |
| 2026-04-25 05:44 | -40.28806 | 147.73697 | 19274 ft | 311 kts | 44° |
| 2026-04-25 05:45 | -40.27358 | 147.75798 | 19278 ft | 311 kts | 44° |
| 2026-04-25 05:45 | -40.25925 | 147.77875 | 19270 ft | 311 kts | 44° |
| 2026-04-25 05:45 | -40.24476 | 147.79972 | 19276 ft | 311 kts | 44° |
| 2026-04-25 05:45 | -40.23027 | 147.82070 | 19280 ft | 310 kts | 44° |
| 2026-04-25 05:46 | -40.21577 | 147.84166 | 19278 ft | 310 kts | 44° |
| 2026-04-25 05:46 | -40.20128 | 147.86260 | 19274 ft | 310 kts | 44° |
| 2026-04-25 05:46 | -40.18677 | 147.88356 | 19280 ft | 310 kts | 44° |
| 2026-04-25 05:46 | -40.17229 | 147.90445 | 19277 ft | 310 kts | 44° |
| 2026-04-25 05:47 | -40.15782 | 147.92532 | 19281 ft | 310 kts | 44° |
| 2026-04-25 05:47 | -40.14334 | 147.94619 | 19278 ft | 310 kts | 44° |
| 2026-04-25 05:47 | -40.13356 | 147.96028 | 19282 ft | 310 kts | 44° |
| 2026-04-25 05:47 | -40.11334 | 147.98626 | 19284 ft | 305 kts | 32° |
| 2026-04-25 05:48 | -40.10145 | 147.99583 | 19287 ft | 302 kts | 22° |
| 2026-04-25 05:48 | -40.08210 | 148.00604 | 19286 ft | 299 kts | 15° |
| 2026-04-25 05:48 | -40.05568 | 148.01734 | 19283 ft | 298 kts | 13° |
| 2026-04-25 05:48 | -40.04253 | 148.02264 | 19286 ft | 298 kts | 13° |
| 2026-04-25 05:49 | -40.02261 | 148.03046 | 19285 ft | 298 kts | 13° |
| 2026-04-25 05:49 | -40.00274 | 148.03813 | 19288 ft | 298 kts | 13° |
| 2026-04-25 05:49 | -39.98276 | 148.04484 | 19289 ft | 296 kts | 7° |
| 2026-04-25 05:49 | -39.96247 | 148.04944 | 19288 ft | 296 kts | 8° |
| 2026-04-25 05:50 | -39.94230 | 148.05509 | 19288 ft | 296 kts | 8° |
| 2026-04-25 05:50 | -39.92207 | 148.06023 | 19286 ft | 296 kts | 7° |
| 2026-04-25 05:50 | -39.90183 | 148.06552 | 19289 ft | 297 kts | 8° |
| 2026-04-25 05:50 | -39.88161 | 148.07085 | 19287 ft | 297 kts | 7° |
| 2026-04-25 05:51 | -39.86136 | 148.07608 | 19290 ft | 297 kts | 8° |
| 2026-04-25 05:51 | -39.84111 | 148.08139 | 19287 ft | 297 kts | 8° |
| 2026-04-25 05:51 | -39.82086 | 148.08665 | 19287 ft | 297 kts | 8° |
| 2026-04-25 05:51 | -39.80062 | 148.09192 | 19289 ft | 297 kts | 8° |
| 2026-04-25 05:52 | -39.78063 | 148.09712 | 19289 ft | 297 kts | 8° |
| 2026-04-25 05:52 | -39.76038 | 148.10238 | 19292 ft | 297 kts | 8° |
| 2026-04-25 05:52 | -39.74011 | 148.10765 | 19290 ft | 297 kts | 8° |
| 2026-04-25 05:52 | -39.71983 | 148.11291 | 19287 ft | 297 kts | 8° |
| 2026-04-25 05:53 | -39.69958 | 148.11816 | 19291 ft | 297 kts | 8° |
| 2026-04-25 05:53 | -39.67931 | 148.12342 | 19293 ft | 297 kts | 8° |
| 2026-04-25 05:53 | -39.65903 | 148.12867 | 19292 ft | 297 kts | 8° |
| 2026-04-25 05:53 | -39.63873 | 148.13393 | 19293 ft | 297 kts | 8° |
| 2026-04-25 05:54 | -39.61846 | 148.13918 | 19294 ft | 297 kts | 8° |
| 2026-04-25 05:54 | -39.59810 | 148.14445 | 19292 ft | 297 kts | 8° |
| 2026-04-25 05:54 | -39.55754 | 148.15492 | 19294 ft | 297 kts | 8° |
| 2026-04-25 05:55 | -39.53721 | 148.16017 | 19297 ft | 297 kts | 8° |
| 2026-04-25 05:55 | -39.51689 | 148.16542 | 19297 ft | 298 kts | 8° |
| 2026-04-25 05:55 | -39.49659 | 148.17066 | 19299 ft | 298 kts | 8° |
| 2026-04-25 05:55 | -39.47627 | 148.17588 | 19298 ft | 298 kts | 8° |
| 2026-04-25 05:56 | -39.45596 | 148.18113 | 19296 ft | 298 kts | 8° |
| 2026-04-25 05:56 | -39.43563 | 148.18635 | 19299 ft | 298 kts | 8° |
| 2026-04-25 05:56 | -39.41530 | 148.19158 | 19297 ft | 298 kts | 8° |
| 2026-04-25 05:56 | -39.39524 | 148.19674 | 19298 ft | 298 kts | 8° |
| 2026-04-25 05:57 | -39.37465 | 148.20203 | 19297 ft | 298 kts | 8° |
| 2026-04-25 05:57 | -39.35461 | 148.20718 | 19295 ft | 298 kts | 8° |
| 2026-04-25 05:57 | -39.33427 | 148.21240 | 19296 ft | 298 kts | 8° |
| 2026-04-25 05:57 | -39.31392 | 148.21762 | 19297 ft | 298 kts | 8° |
| 2026-04-25 05:58 | -39.29356 | 148.22284 | 19297 ft | 298 kts | 8° |
| 2026-04-25 05:58 | -39.27321 | 148.22805 | 19300 ft | 298 kts | 8° |
| 2026-04-25 05:58 | -39.25286 | 148.23326 | 19296 ft | 298 kts | 8° |
| 2026-04-25 05:58 | -39.23252 | 148.23847 | 19302 ft | 298 kts | 8° |
| 2026-04-25 05:59 | -39.21216 | 148.24368 | 19301 ft | 298 kts | 8° |
| 2026-04-25 05:59 | -39.19177 | 148.24889 | 19300 ft | 298 kts | 8° |
| 2026-04-25 05:59 | -39.17143 | 148.25408 | 19301 ft | 298 kts | 8° |
| 2026-04-25 05:59 | -39.15104 | 148.25929 | 19302 ft | 298 kts | 8° |
| 2026-04-25 06:00 | -39.13065 | 148.26449 | 19300 ft | 299 kts | 8° |
| 2026-04-25 06:00 | -39.11028 | 148.26969 | 19301 ft | 299 kts | 8° |
| 2026-04-25 06:00 | -39.08988 | 148.27488 | 19298 ft | 299 kts | 8° |
| 2026-04-25 06:00 | -39.06972 | 148.28002 | 19300 ft | 299 kts | 8° |
| 2026-04-25 06:01 | -39.04936 | 148.28520 | 19300 ft | 299 kts | 8° |
| 2026-04-25 06:01 | -39.02897 | 148.29039 | 19300 ft | 299 kts | 8° |
| 2026-04-25 06:01 | -39.00858 | 148.29557 | 19302 ft | 299 kts | 8° |
| 2026-04-25 06:01 | -38.98818 | 148.30076 | 19304 ft | 299 kts | 8° |
| 2026-04-25 06:02 | -38.96780 | 148.30592 | 19303 ft | 299 kts | 8° |
| 2026-04-25 06:02 | -38.94740 | 148.31111 | 19305 ft | 299 kts | 8° |
| 2026-04-25 06:02 | -38.92704 | 148.31627 | 19299 ft | 299 kts | 8° |
| 2026-04-25 06:02 | -38.90665 | 148.32144 | 19302 ft | 298 kts | 8° |
| 2026-04-25 06:03 | -38.88627 | 148.32660 | 19304 ft | 298 kts | 8° |
| 2026-04-25 06:03 | -38.86588 | 148.33177 | 19308 ft | 298 kts | 8° |
| 2026-04-25 06:03 | -38.84546 | 148.33694 | 19313 ft | 299 kts | 8° |
| 2026-04-25 06:03 | -38.82506 | 148.34209 | 19308 ft | 299 kts | 8° |
| 2026-04-25 06:04 | -38.80468 | 148.34724 | 19310 ft | 299 kts | 8° |
| 2026-04-25 06:04 | -38.78422 | 148.35241 | 19309 ft | 299 kts | 8° |
| 2026-04-25 06:04 | -38.76383 | 148.35756 | 19309 ft | 299 kts | 8° |
| 2026-04-25 06:04 | -38.74340 | 148.36271 | 19308 ft | 299 kts | 8° |
| 2026-04-25 06:05 | -38.72303 | 148.36785 | 19313 ft | 299 kts | 8° |
| 2026-04-25 06:05 | -38.70287 | 148.37293 | 19311 ft | 299 kts | 9° |
| 2026-04-25 06:05 | -38.68243 | 148.37808 | 19312 ft | 299 kts | 9° |
| 2026-04-25 06:05 | -38.66199 | 148.38322 | 19310 ft | 299 kts | 8° |
| 2026-04-25 06:06 | -38.64157 | 148.38837 | 19312 ft | 299 kts | 9° |
| 2026-04-25 06:06 | -38.62119 | 148.39348 | 19312 ft | 299 kts | 9° |
| 2026-04-25 06:06 | -38.60075 | 148.39863 | 19311 ft | 299 kts | 9° |
| 2026-04-25 06:06 | -38.58033 | 148.40375 | 19313 ft | 299 kts | 9° |
| 2026-04-25 06:07 | -38.55991 | 148.40888 | 19312 ft | 299 kts | 9° |
| 2026-04-25 06:07 | -38.53950 | 148.41399 | 19310 ft | 299 kts | 8° |
| 2026-04-25 06:07 | -38.51903 | 148.41844 | 19314 ft | 299 kts | 8° |
| 2026-04-25 06:07 | -38.49874 | 148.42425 | 19313 ft | 299 kts | 11° |
| 2026-04-25 06:08 | -38.47835 | 148.42967 | 19312 ft | 299 kts | 9° |
| 2026-04-25 06:08 | -38.45799 | 148.43514 | 19315 ft | 299 kts | 10° |
| 2026-04-25 06:08 | -38.43767 | 148.44071 | 19314 ft | 299 kts | 9° |
| 2026-04-25 06:08 | -38.41725 | 148.44615 | 19310 ft | 299 kts | 10° |
| 2026-04-25 06:09 | -38.39689 | 148.45167 | 19313 ft | 299 kts | 10° |
| 2026-04-25 06:09 | -38.37649 | 148.45716 | 19310 ft | 299 kts | 10° |
| 2026-04-25 06:09 | -38.35612 | 148.46264 | 19310 ft | 299 kts | 10° |
| 2026-04-25 06:09 | -38.33571 | 148.46814 | 19311 ft | 299 kts | 10° |
| 2026-04-25 06:10 | -38.31533 | 148.47361 | 19311 ft | 299 kts | 10° |
| 2026-04-25 06:10 | -38.29519 | 148.47903 | 19312 ft | 300 kts | 10° |
| 2026-04-25 06:10 | -38.27480 | 148.48451 | 19311 ft | 300 kts | 10° |
| 2026-04-25 06:10 | -38.25439 | 148.48997 | 19312 ft | 300 kts | 10° |
| 2026-04-25 06:11 | -38.23373 | 148.49553 | 19312 ft | 300 kts | 10° |
| 2026-04-25 06:11 | -38.21333 | 148.50099 | 19311 ft | 300 kts | 10° |
| 2026-04-25 06:11 | -38.19293 | 148.50645 | 19312 ft | 300 kts | 10° |
| 2026-04-25 06:11 | -38.17253 | 148.51192 | 19307 ft | 300 kts | 10° |
| 2026-04-25 06:12 | -38.15238 | 148.51730 | 19313 ft | 300 kts | 10° |
| 2026-04-25 06:12 | -38.13196 | 148.52277 | 19313 ft | 300 kts | 10° |
| 2026-04-25 06:12 | -38.11153 | 148.52823 | 19313 ft | 300 kts | 10° |
| 2026-04-25 06:12 | -38.09107 | 148.53369 | 19313 ft | 300 kts | 10° |
| 2026-04-25 06:13 | -38.07066 | 148.53915 | 19314 ft | 300 kts | 10° |
| 2026-04-25 06:13 | -38.05026 | 148.54459 | 19313 ft | 300 kts | 10° |
| 2026-04-25 06:13 | -38.02987 | 148.55003 | 19316 ft | 300 kts | 10° |
| 2026-04-25 06:14 | -37.98901 | 148.56092 | 19313 ft | 300 kts | 10° |
| 2026-04-25 06:14 | -37.96858 | 148.56635 | 19315 ft | 300 kts | 10° |
| 2026-04-25 06:14 | -37.94817 | 148.57179 | 19312 ft | 300 kts | 10° |
| 2026-04-25 06:14 | -37.92775 | 148.57722 | 19316 ft | 300 kts | 10° |
| 2026-04-25 06:15 | -37.90733 | 148.58264 | 19314 ft | 300 kts | 10° |
| 2026-04-25 06:15 | -37.88689 | 148.58807 | 19313 ft | 300 kts | 10° |
| 2026-04-25 06:15 | -37.86648 | 148.59349 | 19313 ft | 300 kts | 10° |
| 2026-04-25 06:15 | -37.84609 | 148.59890 | 19314 ft | 300 kts | 10° |
| 2026-04-25 06:16 | -37.82592 | 148.60425 | 19313 ft | 300 kts | 10° |
| 2026-04-25 06:16 | -37.80550 | 148.60966 | 19315 ft | 300 kts | 10° |
| 2026-04-25 06:16 | -37.78504 | 148.61508 | 19314 ft | 300 kts | 10° |
| 2026-04-25 06:16 | -37.76455 | 148.62050 | 19314 ft | 300 kts | 10° |
| 2026-04-25 06:17 | -37.74410 | 148.62591 | 19313 ft | 300 kts | 10° |
| 2026-04-25 06:17 | -37.72365 | 148.63132 | 19309 ft | 300 kts | 10° |
| 2026-04-25 06:17 | -37.70320 | 148.63673 | 19310 ft | 300 kts | 10° |
| 2026-04-25 06:17 | -37.68274 | 148.64213 | 19312 ft | 300 kts | 10° |
| 2026-04-25 06:18 | -37.66230 | 148.64753 | 19309 ft | 300 kts | 10° |
| 2026-04-25 06:18 | -37.64184 | 148.65293 | 19310 ft | 300 kts | 10° |
| 2026-04-25 06:18 | -37.62138 | 148.65830 | 19312 ft | 300 kts | 11° |
| 2026-04-25 06:18 | -37.60093 | 148.66372 | 19311 ft | 300 kts | 10° |
| 2026-04-25 06:19 | -37.58045 | 148.66909 | 19313 ft | 300 kts | 10° |
| 2026-04-25 06:19 | -37.55998 | 148.67450 | 19312 ft | 301 kts | 10° |
| 2026-04-25 06:19 | -37.53949 | 148.67987 | 19309 ft | 301 kts | 11° |
| 2026-04-25 06:19 | -37.51904 | 148.68527 | 19312 ft | 301 kts | 10° |
| 2026-04-25 06:20 | -37.49855 | 148.69064 | 19313 ft | 301 kts | 10° |
| 2026-04-25 06:20 | -37.47807 | 148.69602 | 19315 ft | 301 kts | 11° |
| 2026-04-25 06:20 | -37.45757 | 148.70141 | 19316 ft | 301 kts | 10° |
| 2026-04-25 06:20 | -37.43697 | 148.70681 | 19312 ft | 301 kts | 10° |
| 2026-04-25 06:21 | -37.41646 | 148.71218 | 19312 ft | 301 kts | 10° |
| 2026-04-25 06:21 | -37.39593 | 148.71756 | 19316 ft | 301 kts | 11° |
| 2026-04-25 06:21 | -37.37568 | 148.72287 | 19314 ft | 301 kts | 11° |
| 2026-04-25 06:21 | -37.35514 | 148.72824 | 19314 ft | 301 kts | 11° |
| 2026-04-25 06:22 | -37.33461 | 148.73362 | 19316 ft | 302 kts | 11° |
| 2026-04-25 06:22 | -37.31403 | 148.73899 | 19313 ft | 302 kts | 11° |
| 2026-04-25 06:22 | -37.29351 | 148.74437 | 19310 ft | 301 kts | 11° |
| 2026-04-25 06:22 | -37.27297 | 148.74972 | 19311 ft | 301 kts | 11° |
| 2026-04-25 06:23 | -37.25245 | 148.75509 | 19314 ft | 301 kts | 11° |
| 2026-04-25 06:23 | -37.23192 | 148.76044 | 19319 ft | 301 kts | 11° |
| 2026-04-25 06:23 | -37.21141 | 148.76579 | 19315 ft | 301 kts | 11° |
| 2026-04-25 06:23 | -37.19086 | 148.77114 | 19314 ft | 302 kts | 11° |
| 2026-04-25 06:24 | -37.17031 | 148.77650 | 19318 ft | 302 kts | 11° |
| 2026-04-25 06:24 | -37.14974 | 148.78185 | 19321 ft | 302 kts | 11° |
| 2026-04-25 06:24 | -37.12916 | 148.78720 | 19320 ft | 302 kts | 11° |
| 2026-04-25 06:24 | -37.10856 | 148.79257 | 19319 ft | 302 kts | 11° |
| 2026-04-25 06:25 | -37.08798 | 148.79791 | 19321 ft | 302 kts | 11° |
| 2026-04-25 06:25 | -37.06741 | 148.80324 | 19322 ft | 302 kts | 11° |
| 2026-04-25 06:25 | -37.04682 | 148.80860 | 19318 ft | 302 kts | 11° |
| 2026-04-25 06:25 | -37.02620 | 148.81394 | 19319 ft | 302 kts | 11° |
| 2026-04-25 06:26 | -37.00563 | 148.81929 | 19321 ft | 302 kts | 11° |
| 2026-04-25 06:26 | -36.98497 | 148.82463 | 19320 ft | 302 kts | 11° |
| 2026-04-25 06:26 | -36.96438 | 148.82998 | 19318 ft | 302 kts | 11° |
| 2026-04-25 06:26 | -36.94375 | 148.83531 | 19318 ft | 302 kts | 11° |
| 2026-04-25 06:27 | -36.92312 | 148.84065 | 19323 ft | 303 kts | 11° |
| 2026-04-25 06:27 | -36.90249 | 148.84599 | 19322 ft | 303 kts | 11° |
| 2026-04-25 06:27 | -36.88185 | 148.85131 | 19322 ft | 303 kts | 11° |
| 2026-04-25 06:27 | -36.86120 | 148.85666 | 19318 ft | 303 kts | 11° |
| 2026-04-25 06:28 | -36.84048 | 148.86200 | 19320 ft | 303 kts | 11° |
| 2026-04-25 06:28 | -36.82010 | 148.86726 | 19320 ft | 303 kts | 11° |
| 2026-04-25 06:28 | -36.79947 | 148.87258 | 19320 ft | 303 kts | 11° |
| 2026-04-25 06:28 | -36.77877 | 148.87791 | 19317 ft | 303 kts | 11° |
| 2026-04-25 06:29 | -36.75816 | 148.88323 | 19315 ft | 303 kts | 11° |
| 2026-04-25 06:29 | -36.73750 | 148.88854 | 19320 ft | 303 kts | 11° |
| 2026-04-25 06:29 | -36.71687 | 148.89384 | 19319 ft | 303 kts | 11° |
| 2026-04-25 06:29 | -36.69621 | 148.89916 | 19320 ft | 303 kts | 11° |
| 2026-04-25 06:30 | -36.67560 | 148.90447 | 19318 ft | 303 kts | 11° |
| 2026-04-25 06:30 | -36.65495 | 148.90976 | 19319 ft | 303 kts | 11° |
| 2026-04-25 06:30 | -36.63434 | 148.91505 | 19319 ft | 303 kts | 11° |
| 2026-04-25 06:30 | -36.61366 | 148.92037 | 19318 ft | 303 kts | 11° |
| 2026-04-25 06:31 | -36.59306 | 148.92565 | 19321 ft | 302 kts | 11° |
| 2026-04-25 06:31 | -36.57242 | 148.93093 | 19321 ft | 302 kts | 11° |
| 2026-04-25 06:31 | -36.55180 | 148.93621 | 19320 ft | 302 kts | 11° |
| 2026-04-25 06:31 | -36.53817 | 148.93972 | 19320 ft | 302 kts | 11° |
| 2026-04-25 06:32 | -36.51752 | 148.94499 | 19322 ft | 302 kts | 11° |
| 2026-04-25 06:32 | -36.48997 | 148.95204 | 19317 ft | 302 kts | 11° |
| 2026-04-25 06:32 | -36.47629 | 148.95553 | 19319 ft | 302 kts | 11° |
| 2026-04-25 06:32 | -36.45569 | 148.96080 | 19320 ft | 302 kts | 11° |
| 2026-04-25 06:33 | -36.42838 | 148.96778 | 19321 ft | 302 kts | 11° |
| 2026-04-25 06:33 | -36.41446 | 148.97133 | 19320 ft | 302 kts | 11° |
| 2026-04-25 06:33 | -36.39391 | 148.97658 | 19318 ft | 302 kts | 11° |
| 2026-04-25 06:33 | -36.37359 | 148.98175 | 19314 ft | 302 kts | 11° |
| 2026-04-25 06:34 | -36.35304 | 148.98700 | 19319 ft | 302 kts | 11° |
| 2026-04-25 06:34 | -36.33249 | 148.99222 | 19316 ft | 302 kts | 11° |
| 2026-04-25 06:34 | -36.31193 | 148.99747 | 19317 ft | 302 kts | 11° |
| 2026-04-25 06:34 | -36.29139 | 149.00269 | 19320 ft | 301 kts | 11° |
| 2026-04-25 06:35 | -36.27085 | 149.00791 | 19319 ft | 301 kts | 11° |
| 2026-04-25 06:35 | -36.25031 | 149.01313 | 19323 ft | 301 kts | 11° |
| 2026-04-25 06:35 | -36.22974 | 149.01836 | 19321 ft | 301 kts | 11° |
| 2026-04-25 06:35 | -36.20918 | 149.02357 | 19322 ft | 301 kts | 11° |
| 2026-04-25 06:36 | -36.18869 | 149.02878 | 19323 ft | 301 kts | 11° |
| 2026-04-25 06:36 | -36.16817 | 149.03398 | 19325 ft | 301 kts | 11° |
| 2026-04-25 06:36 | -36.14766 | 149.03918 | 19322 ft | 301 kts | 11° |
| 2026-04-25 06:36 | -36.12719 | 149.04436 | 19325 ft | 300 kts | 11° |
| 2026-04-25 06:37 | -36.10657 | 149.04958 | 19179 ft | 305 kts | 11° |
| 2026-04-25 06:37 | -36.08539 | 149.05495 | 18790 ft | 316 kts | 11° |
| 2026-04-25 06:37 | -36.06351 | 149.06048 | 18306 ft | 325 kts | 11° |
| 2026-04-25 06:37 | -36.04127 | 149.06612 | 17802 ft | 326 kts | 11° |
| 2026-04-25 06:38 | -36.01949 | 149.07160 | 17313 ft | 321 kts | 11° |
| 2026-04-25 06:38 | -35.99773 | 149.07710 | 16828 ft | 317 kts | 11° |
| 2026-04-25 06:38 | -35.97648 | 149.08246 | 16346 ft | 308 kts | 11° |
| 2026-04-25 06:38 | -35.95609 | 149.08760 | 15886 ft | 301 kts | 11° |
| 2026-04-25 06:39 | -35.93571 | 149.09274 | 15417 ft | 297 kts | 11° |
| 2026-04-25 06:39 | -35.91559 | 149.09781 | 14972 ft | 293 kts | 10° |
| 2026-04-25 06:39 | -35.89567 | 149.10283 | 14544 ft | 290 kts | 11° |
| 2026-04-25 06:39 | -35.87598 | 149.10778 | 14135 ft | 287 kts | 11° |
| 2026-04-25 06:40 | -35.85650 | 149.11270 | 13713 ft | 284 kts | 10° |
| 2026-04-25 06:40 | -35.83743 | 149.11748 | 13503 ft | 274 kts | 10° |
| 2026-04-25 06:40 | -35.81905 | 149.12208 | 13412 ft | 264 kts | 10° |
| 2026-04-25 06:40 | -35.80134 | 149.12652 | 13363 ft | 257 kts | 10° |
| 2026-04-25 06:41 | -35.78378 | 149.13100 | 13353 ft | 258 kts | 10° |
| 2026-04-25 06:41 | -35.76613 | 149.13537 | 13342 ft | 259 kts | 11° |
| 2026-04-25 06:41 | -35.74873 | 149.13977 | 13340 ft | 259 kts | 10° |
| 2026-04-25 06:41 | -35.73106 | 149.14415 | 13338 ft | 259 kts | 10° |
| 2026-04-25 06:42 | -35.71338 | 149.14863 | 13329 ft | 259 kts | 10° |
| 2026-04-25 06:42 | -35.69574 | 149.15304 | 13329 ft | 259 kts | 10° |
| 2026-04-25 06:42 | -35.67808 | 149.15746 | 13260 ft | 261 kts | 10° |
| 2026-04-25 06:42 | -35.65970 | 149.16204 | 12632 ft | 279 kts | 10° |
| 2026-04-25 06:43 | -35.64084 | 149.16681 | 11963 ft | 274 kts | 11° |
| 2026-04-25 06:43 | -35.62230 | 149.17143 | 11306 ft | 270 kts | 10° |
| 2026-04-25 06:43 | -35.60405 | 149.17599 | 10664 ft | 266 kts | 11° |
| 2026-04-25 06:43 | -35.58595 | 149.18046 | 10013 ft | 265 kts | 10° |
| 2026-04-25 06:44 | -35.56985 | 149.18442 | 9383 ft | 263 kts | 11° |
| 2026-04-25 06:44 | -35.55195 | 149.18895 | 8699 ft | 261 kts | 11° |
| 2026-04-25 06:44 | -35.53417 | 149.19302 | 8030 ft | 259 kts | 9° |
| 2026-04-25 06:44 | -35.51649 | 149.19670 | 7374 ft | 256 kts | 8° |
| 2026-04-25 06:45 | -35.49886 | 149.19653 | 6732 ft | 253 kts | 355° |
| 2026-04-25 06:45 | -35.48141 | 149.19453 | 6071 ft | 250 kts | 355° |
| 2026-04-25 06:45 | -35.46438 | 149.19441 | 5711 ft | 237 kts | 1° |
| 2026-04-25 06:45 | -35.44837 | 149.19468 | 5242 ft | 231 kts | 358° |
| 2026-04-25 06:46 | -35.43187 | 149.19438 | 4517 ft | 238 kts | 359° |
| 2026-04-25 06:46 | -35.41568 | 149.19452 | 4018 ft | 227 kts | 359° |
| 2026-04-25 06:46 | -35.39916 | 149.19476 | 3311 ft | 235 kts | 1° |
| 2026-04-25 06:46 | -35.38364 | 149.19558 | 3177 ft | 213 kts | 2° |
| 2026-04-25 06:47 | -35.36904 | 149.19539 | 2890 ft | 205 kts | 355° |
| 2026-04-25 06:47 | -35.35536 | 149.19461 | 2680 ft | 193 kts | 0° |
| 2026-04-25 06:47 | -35.34272 | 149.19427 | 2340 ft | 167 kts | 358° |
| 2026-04-25 06:47 | -35.33297 | 149.19445 | 2218 ft | 114 kts | 0° |
| 2026-04-25 06:48 | -35.32520 | 149.19444 | 2091 ft | 109 kts | 358° |
| 2026-04-25 06:48 | -35.31773 | 149.19446 | 1971 ft | 106 kts | 358° |
| 2026-04-25 06:48 | -35.31066 | 149.19444 | 1876 ft | 85 kts | 358° |
| 2026-04-25 06:48 | -35.30811 | 149.19439 | 1876 ft | 14 kts | 321° |
| 2026-04-25 06:49 | -35.30748 | 149.19338 | 1876 ft | 16 kts | 311° |
| 2026-04-25 06:49 | -35.30712 | 149.19285 | 1876 ft | 2 kts | 308° |
| 2026-04-25 06:49 | -35.30691 | 149.19252 | 1876 ft | 9 kts | 306° |
| 2026-04-25 06:49 | -35.30630 | 149.19152 | 1876 ft | 17 kts | 310° |
| 2026-04-25 06:50 | -35.30549 | 149.19035 | 1876 ft | 19 kts | 308° |
| 2026-04-25 06:50 | -35.30470 | 149.18919 | 1876 ft | 13 kts | 312° |
| 2026-04-25 06:50 | -35.30447 | 149.18843 | 1876 ft | 12 kts | 248° |
| 2026-04-25 06:50 | -35.30486 | 149.18763 | 1876 ft | 9 kts | 293° |
| 2026-04-25 06:51 | -35.30436 | 149.18694 | 1876 ft | 12 kts | 313° |
| 2026-04-25 06:51 | -35.30394 | 149.18687 | 1876 ft | 9 kts | 43° |
| 2026-04-25 06:51 | -35.30361 | 149.18698 | 1876 ft | 4 kts | 309° |
| 2026-04-25 06:51 | -35.30356 | 149.18692 | 1876 ft | 0 kts | 306° |
| 2026-04-25 06:52 | -35.30350 | 149.18681 | 1876 ft | 8 kts | 289° |
| 2026-04-25 06:52 | -35.30413 | 149.18659 | 1876 ft | 13 kts | 142° |
| 2026-04-25 06:52 | -35.30430 | 149.18731 | 1876 ft | 7 kts | 37° |
| 2026-04-25 06:52 | -35.30396 | 149.18733 | 1876 ft | 1 kts | 309° |
| 2026-04-25 06:53 | -35.30395 | 149.18732 | 1876 ft | 0 kts | 309° |